Time;durP1;ratioP1;P1;durP2;ratioP2;P2;SDS_P1;SDS_P2;PMS_P1;PMS_P2;Temp;Humidity;BMP_temperature;BMP_pressure;BME280_temperature;BME280_humidity;BME280_pressure;Samples;Min_cycle;Max_cycle;Signal;HPM_P1;HPM_P2
2023/04/25 00:00:06;;;;;;;8.00;2.22;;;;;;;;;;1016202;29;20024;-73
2023/04/25 00:00:37;;;;;;;11.07;3.97;;;;;;;;;;1020199;29;20039;-73
2023/04/25 00:01:09;;;;;;;6.53;3.22;;;;;;;;;;1024377;29;20015;-73
2023/04/25 00:01:39;;;;;;;8.10;2.60;;;;;;;;;;1024477;28;20650;-73
2023/04/25 00:02:10;;;;;;;6.93;3.30;;;;;;;;;;1029171;28;20080;-73
2023/04/25 00:02:41;;;;;;;2.67;1.85;;;;;;;;;;1027048;28;20035;-73
2023/04/25 00:03:11;;;;;;;3.03;2.22;;;;;;;;;;1029508;28;20041;-73
2023/04/25 00:03:42;;;;;;;7.63;3.25;;;;;;;;;;1029616;28;20121;-73
2023/04/25 00:04:12;;;;;;;3.90;2.80;;;;;;;;;;1026565;28;20034;-73
2023/04/25 00:04:43;;;;;;;4.85;2.13;;;;;;;;;;1026113;28;20035;-73
2023/04/25 00:05:14;;;;;;;6.93;3.10;;;;;;;;;;1024091;28;20037;-73
2023/04/25 00:05:45;;;;;;;8.98;1.48;;;;;;;;;;1024792;28;20037;-73
2023/04/25 00:06:17;;;;;;;7.93;3.08;;;;;;;;;;1030694;28;20398;-73
2023/04/25 00:06:48;;;;;;;3.90;3.03;;;;;;;;;;1025659;28;20546;-73
2023/04/25 00:07:19;;;;;;;20.45;2.22;;;;;;;;;;1026734;28;20086;-73
2023/04/25 00:07:50;;;;;;;6.93;3.40;;;;;;;;;;1023917;29;20051;-73
2023/04/25 00:08:20;;;;;;;36.95;3.72;;;;;;;;;;1024856;28;20027;-73
2023/04/25 00:08:51;;;;;;;12.00;3.55;;;;;;;;;;1028487;28;20539;-73
2023/04/25 00:09:22;;;;;;;4.13;3.22;;;;;;;;;;1028447;28;20023;-73
2023/04/25 00:09:52;;;;;;;4.28;2.58;;;;;;;;;;1028251;28;20030;-73
2023/04/25 00:10:23;;;;;;;7.63;3.22;;;;;;;;;;1028247;28;20466;-73
2023/04/25 00:10:53;;;;;;;4.70;2.15;;;;;;;;;;1024739;29;20471;-73
2023/04/25 00:11:24;;;;;;;4.88;1.63;;;;;;;;;;1023996;29;20038;-73
2023/04/25 00:11:55;;;;;;;4.10;3.00;;;;;;;;;;1023302;29;20407;-74
2023/04/25 00:12:28;;;;;;;6.57;2.90;;;;;;;;;;1024043;28;20511;-73
2023/04/25 00:12:58;;;;;;;7.05;2.03;;;;;;;;;;1024975;29;20170;-73
2023/04/25 00:13:29;;;;;;;9.10;2.70;;;;;;;;;;1023947;29;20384;-73
2023/04/25 00:14:01;;;;;;;10.80;3.88;;;;;;;;;;1024280;29;20042;-73
2023/04/25 00:14:35;;;;;;;9.10;3.63;;;;;;;;;;1024428;28;20735;-73
2023/04/25 00:15:06;;;;;;;10.60;3.03;;;;;;;;;;1028969;28;20786;-73
2023/04/25 00:15:37;;;;;;;2.33;1.88;;;;;;;;;;1029840;28;20026;-73
2023/04/25 00:16:08;;;;;;;2.33;1.83;;;;;;;;;;1030319;28;20054;-73
2023/04/25 00:16:38;;;;;;;8.40;2.65;;;;;;;;;;1029657;28;20037;-73
2023/04/25 00:17:09;;;;;;;4.28;2.60;;;;;;;;;;1029732;28;20034;-73
2023/04/25 00:17:39;;;;;;;5.90;3.03;;;;;;;;;;1028911;28;20030;-73
2023/04/25 00:18:11;;;;;;;21.02;3.97;;;;;;;;;;1030253;28;20026;-73
2023/04/25 00:18:41;;;;;;;7.43;3.78;;;;;;;;;;1030187;28;20525;-73
2023/04/25 00:19:13;;;;;;;7.97;2.15;;;;;;;;;;1030392;28;20022;-73
2023/04/25 00:19:45;;;;;;;4.25;2.10;;;;;;;;;;1028429;28;20030;-73
2023/04/25 00:20:16;;;;;;;6.05;2.20;;;;;;;;;;1028462;28;20023;-73
2023/04/25 00:20:46;;;;;;;8.13;2.70;;;;;;;;;;1028209;28;20062;-73
2023/04/25 00:21:18;;;;;;;3.72;1.83;;;;;;;;;;1024197;29;20110;-73
2023/04/25 00:21:48;;;;;;;5.50;2.50;;;;;;;;;;1022914;29;20057;-73
2023/04/25 00:22:19;;;;;;;5.22;2.13;;;;;;;;;;1025071;29;20070;-73
2023/04/25 00:22:49;;;;;;;5.40;2.80;;;;;;;;;;1024170;28;20031;-73
2023/04/25 00:23:20;;;;;;;7.82;2.25;;;;;;;;;;1028477;28;20483;-73
2023/04/25 00:23:52;;;;;;;10.57;2.45;;;;;;;;;;1023818;29;20027;-73
2023/04/25 00:24:22;;;;;;;8.35;3.47;;;;;;;;;;1024826;29;20031;-73
2023/04/25 00:24:53;;;;;;;3.78;2.25;;;;;;;;;;1024091;29;20023;-73
2023/04/25 00:25:23;;;;;;;3.45;2.50;;;;;;;;;;1024231;28;20039;-73
2023/04/25 00:25:54;;;;;;;3.28;2.25;;;;;;;;;;1028249;28;20037;-73
2023/04/25 00:26:24;;;;;;;3.42;1.90;;;;;;;;;;1028081;28;20046;-73
2023/04/25 00:26:55;;;;;;;5.68;2.22;;;;;;;;;;1028321;28;20034;-73
2023/04/25 00:27:26;;;;;;;3.90;1.73;;;;;;;;;;1028251;28;20038;-73
2023/04/25 00:27:56;;;;;;;4.90;2.05;;;;;;;;;;1023938;29;20376;-73
2023/04/25 00:28:27;;;;;;;2.65;1.67;;;;;;;;;;1022936;29;20042;-73
2023/04/25 00:28:57;;;;;;;11.85;3.22;;;;;;;;;;1024780;29;20483;-73
2023/04/25 00:29:28;;;;;;;2.80;1.92;;;;;;;;;;1024006;28;20098;-73
2023/04/25 00:29:58;;;;;;;4.38;1.83;;;;;;;;;;1028276;28;20475;-74
2023/04/25 00:30:29;;;;;;;9.70;3.53;;;;;;;;;;1028127;28;20122;-74
2023/04/25 00:30:59;;;;;;;7.45;3.20;;;;;;;;;;1028692;28;20050;-74
2023/04/25 00:31:30;;;;;;;8.52;2.65;;;;;;;;;;1028119;28;20030;-73
2023/04/25 00:32:01;;;;;;;5.20;2.10;;;;;;;;;;1028371;28;20076;-73
2023/04/25 00:32:31;;;;;;;6.57;3.65;;;;;;;;;;1028225;28;20023;-73
2023/04/25 00:33:02;;;;;;;2.35;2.08;;;;;;;;;;1028928;28;20367;-73
2023/04/25 00:33:32;;;;;;;8.82;3.30;;;;;;;;;;1028113;28;20049;-73
2023/04/25 00:34:03;;;;;;;1.95;1.50;;;;;;;;;;1028403;28;20022;-73
2023/04/25 00:34:33;;;;;;;4.57;2.55;;;;;;;;;;1028172;28;20022;-73
2023/04/25 00:35:04;;;;;;;3.28;2.63;;;;;;;;;;1023875;29;20498;-73
2023/04/25 00:35:34;;;;;;;9.40;2.60;;;;;;;;;;1020251;29;20034;-73
2023/04/25 00:36:05;;;;;;;7.82;2.58;;;;;;;;;;1020020;29;20484;-73
2023/04/25 00:36:36;;;;;;;3.78;1.95;;;;;;;;;;1019891;29;20031;-73
2023/04/25 00:37:06;;;;;;;6.80;2.72;;;;;;;;;;1026156;28;20088;-73
2023/04/25 00:37:37;;;;;;;3.45;2.38;;;;;;;;;;1026711;28;20029;-73
2023/04/25 00:38:07;;;;;;;4.97;3.42;;;;;;;;;;1029190;28;20111;-73
2023/04/25 00:38:38;;;;;;;11.98;2.42;;;;;;;;;;1030171;28;20105;-73
2023/04/25 00:39:08;;;;;;;7.57;4.25;;;;;;;;;;1027520;28;20030;-73
2023/04/25 00:39:39;;;;;;;1.73;1.30;;;;;;;;;;1027179;28;20363;-73
2023/04/25 00:40:10;;;;;;;3.80;2.35;;;;;;;;;;1028619;28;20097;-73
2023/04/25 00:40:43;;;;;;;3.67;2.30;;;;;;;;;;1027296;28;20022;-73
2023/04/25 00:41:14;;;;;;;4.53;1.00;;;;;;;;;;1023157;29;20118;-73
2023/04/25 00:41:45;;;;;;;2.22;1.77;;;;;;;;;;1022920;29;20035;-73
2023/04/25 00:42:15;;;;;;;5.82;2.92;;;;;;;;;;1024372;29;20039;-73
2023/04/25 00:42:46;;;;;;;9.45;3.38;;;;;;;;;;1023733;29;20026;-73
2023/04/25 00:43:17;;;;;;;3.90;2.70;;;;;;;;;;1024024;29;20023;-73
2023/04/25 00:43:48;;;;;;;9.70;1.98;;;;;;;;;;1025762;28;20541;-73
2023/04/25 00:44:18;;;;;;;7.03;2.20;;;;;;;;;;1026641;28;20058;-73
2023/04/25 00:44:49;;;;;;;1.95;1.77;;;;;;;;;;1025610;28;20038;-73
2023/04/25 00:45:20;;;;;;;9.75;4.20;;;;;;;;;;1025599;28;20023;-73
2023/04/25 00:45:50;;;;;;;3.20;1.60;;;;;;;;;;1023734;29;20019;-74
2023/04/25 00:46:21;;;;;;;2.90;2.22;;;;;;;;;;1023942;29;20113;-73
2023/04/25 00:46:52;;;;;;;3.85;2.20;;;;;;;;;;1023308;29;20039;-73
2023/04/25 00:47:23;;;;;;;3.72;1.50;;;;;;;;;;1024165;28;20015;-73
2023/04/25 00:47:54;;;;;;;3.97;2.33;;;;;;;;;;1028214;28;20015;-73
2023/04/25 00:48:24;;;;;;;15.23;3.20;;;;;;;;;;1028161;28;20033;-73
2023/04/25 00:48:55;;;;;;;7.43;2.95;;;;;;;;;;1029058;28;20014;-73
2023/04/25 00:49:25;;;;;;;4.72;3.40;;;;;;;;;;1027413;28;20023;-73
2023/04/25 00:49:56;;;;;;;9.02;4.03;;;;;;;;;;1023504;29;20023;-73
2023/04/25 00:50:26;;;;;;;3.53;1.98;;;;;;;;;;1019293;29;20036;-73
2023/04/25 00:50:58;;;;;;;13.75;4.55;;;;;;;;;;1020402;29;20031;-73
2023/04/25 00:51:28;;;;;;;7.45;2.45;;;;;;;;;;1015986;29;20622;-73
2023/04/25 00:51:59;;;;;;;4.05;1.95;;;;;;;;;;1020133;29;20058;-73
2023/04/25 00:52:29;;;;;;;4.10;1.83;;;;;;;;;;1023837;29;20023;-73
2023/04/25 00:53:00;;;;;;;9.52;2.45;;;;;;;;;;1024082;28;20026;-73
2023/04/25 00:53:32;;;;;;;3.80;1.58;;;;;;;;;;1028136;28;20030;-73
2023/04/25 00:54:03;;;;;;;4.80;2.03;;;;;;;;;;1028295;28;20034;-73
2023/04/25 00:54:33;;;;;;;4.68;2.22;;;;;;;;;;1028067;28;20071;-73
2023/04/25 00:55:05;;;;;;;5.45;1.50;;;;;;;;;;1023702;29;20694;-73
2023/04/25 00:55:35;;;;;;;26.25;7.68;;;;;;;;;;1024491;29;20027;-73
2023/04/25 00:56:06;;;;;;;44.88;7.50;;;;;;;;;;1019898;29;20111;-73
2023/04/25 00:56:37;;;;;;;13.25;5.05;;;;;;;;;;1019099;29;20027;-73
2023/04/25 00:57:07;;;;;;;40.88;10.95;;;;;;;;;;1024038;29;20023;-73
2023/04/25 00:57:38;;;;;;;47.08;13.75;;;;;;;;;;1023633;28;20403;-73
2023/04/25 00:58:09;;;;;;;24.40;9.98;;;;;;;;;;1028759;28;20031;-73
2023/04/25 00:58:40;;;;;;;14.60;5.82;;;;;;;;;;1029730;28;20025;-73
2023/04/25 00:59:11;;;;;;;17.95;6.07;;;;;;;;;;1025661;28;20435;-73
2023/04/25 00:59:44;;;;;;;5.95;3.08;;;;;;;;;;1025984;28;20031;-73
2023/04/25 01:00:15;;;;;;;6.63;2.95;;;;;;;;;;1026317;28;20035;-73
2023/04/25 01:00:47;;;;;;;6.07;3.13;;;;;;;;;;1023703;29;20027;-73
2023/04/25 01:01:17;;;;;;;8.15;3.47;;;;;;;;;;1023968;29;20549;-73
2023/04/25 01:01:48;;;;;;;22.73;3.45;;;;;;;;;;1022546;29;20015;-73
2023/04/25 01:02:19;;;;;;;11.38;3.65;;;;;;;;;;1019806;29;20018;-73
2023/04/25 01:02:50;;;;;;;14.18;2.22;;;;;;;;;;1019888;29;20043;-73
2023/04/25 01:03:20;;;;;;;3.97;2.38;;;;;;;;;;1020127;29;20028;-73
2023/04/25 01:03:53;;;;;;;8.63;1.58;;;;;;;;;;1023877;28;20071;-73
2023/04/25 01:04:24;;;;;;;18.63;5.75;;;;;;;;;;1027650;28;20021;-73
2023/04/25 01:04:54;;;;;;;7.60;3.35;;;;;;;;;;1028829;28;20125;-73
2023/04/25 01:05:25;;;;;;;10.98;5.13;;;;;;;;;;1023665;28;20094;-73
2023/04/25 01:05:56;;;;;;;19.17;4.80;;;;;;;;;;1023644;29;20019;-73
2023/04/25 01:06:27;;;;;;;5.32;1.73;;;;;;;;;;1023839;29;20024;-73
2023/04/25 01:06:58;;;;;;;10.10;5.43;;;;;;;;;;1020809;29;20068;-73
2023/04/25 01:07:28;;;;;;;22.50;5.63;;;;;;;;;;1019819;29;20023;-73
2023/04/25 01:07:59;;;;;;;18.92;8.60;;;;;;;;;;1023893;29;20023;-73
2023/04/25 01:08:30;;;;;;;13.68;5.22;;;;;;;;;;1023998;28;20091;-73
2023/04/25 01:09:01;;;;;;;8.48;4.60;;;;;;;;;;1028214;28;20049;-73
2023/04/25 01:09:32;;;;;;;17.20;5.30;;;;;;;;;;1023888;29;20067;-73
2023/04/25 01:10:03;;;;;;;6.70;3.85;;;;;;;;;;1023951;29;20023;-73
2023/04/25 01:10:33;;;;;;;8.63;4.28;;;;;;;;;;1023667;29;20031;-73
2023/04/25 01:11:04;;;;;;;6.03;2.97;;;;;;;;;;1022792;28;20018;-73
2023/04/25 01:11:34;;;;;;;6.18;3.33;;;;;;;;;;1027415;28;20026;-73
2023/04/25 01:12:05;;;;;;;4.88;3.22;;;;;;;;;;1029742;28;20036;-73
2023/04/25 01:12:36;;;;;;;4.47;2.63;;;;;;;;;;1028982;28;20104;-73
2023/04/25 01:13:06;;;;;;;4.00;3.13;;;;;;;;;;1029921;28;20117;-73
2023/04/25 01:13:37;;;;;;;3.53;2.83;;;;;;;;;;1029409;28;20450;-73
2023/04/25 01:14:07;;;;;;;3.67;2.10;;;;;;;;;;1027537;28;20041;-73
2023/04/25 01:14:38;;;;;;;8.27;2.58;;;;;;;;;;1027778;28;20242;-73
2023/04/25 01:15:09;;;;;;;6.15;1.33;;;;;;;;;;1027958;28;20046;-73
2023/04/25 01:15:39;;;;;;;5.00;2.75;;;;;;;;;;1027754;28;20041;-73
2023/04/25 01:16:10;;;;;;;2.67;1.92;;;;;;;;;;1023591;29;20042;-73
2023/04/25 01:16:41;;;;;;;3.60;1.70;;;;;;;;;;1022875;28;20143;-73
2023/04/25 01:17:12;;;;;;;5.10;3.08;;;;;;;;;;1023849;28;20038;-73
2023/04/25 01:17:43;;;;;;;8.13;4.07;;;;;;;;;;1023126;28;20051;-73
2023/04/25 01:18:14;;;;;;;2.70;1.98;;;;;;;;;;1026747;28;20058;-73
2023/04/25 01:18:45;;;;;;;6.13;2.13;;;;;;;;;;1026777;28;20098;-73
2023/04/25 01:19:16;;;;;;;4.47;2.00;;;;;;;;;;1026102;28;20035;-73
2023/04/25 01:19:48;;;;;;;2.58;1.90;;;;;;;;;;1022113;28;20034;-74
2023/04/25 01:20:20;;;;;;;5.97;2.67;;;;;;;;;;1023088;28;20427;-73
2023/04/25 01:20:52;;;;;;;4.03;2.40;;;;;;;;;;1023368;28;20023;-73
2023/04/25 01:21:22;;;;;;;2.63;1.63;;;;;;;;;;1018416;28;20907;-73
2023/04/25 01:21:53;;;;;;;3.85;2.83;;;;;;;;;;1021919;28;20130;-73
2023/04/25 01:22:23;;;;;;;2.70;1.40;;;;;;;;;;1022301;28;20395;-73
2023/04/25 01:22:55;;;;;;;8.73;2.88;;;;;;;;;;1023884;28;20038;-73
2023/04/25 01:23:25;;;;;;;8.23;2.22;;;;;;;;;;1026976;28;20042;-73
2023/04/25 01:23:56;;;;;;;7.90;2.95;;;;;;;;;;1023151;28;20019;-73
2023/04/25 01:24:27;;;;;;;1.95;1.80;;;;;;;;;;1025589;28;20573;-73
2023/04/25 01:24:58;;;;;;;5.88;2.35;;;;;;;;;;1022812;28;20411;-73
2023/04/25 01:25:28;;;;;;;2.90;1.90;;;;;;;;;;1024537;28;20026;-73
2023/04/25 01:26:00;;;;;;;6.07;2.08;;;;;;;;;;1018377;29;20538;-73
2023/04/25 01:26:30;;;;;;;3.30;1.92;;;;;;;;;;1017644;28;20070;-73
2023/04/25 01:27:02;;;;;;;15.63;2.20;;;;;;;;;;1022247;28;20038;-73
2023/04/25 01:27:32;;;;;;;12.32;2.85;;;;;;;;;;1026121;28;20022;-73
2023/04/25 01:28:03;;;;;;;3.65;2.53;;;;;;;;;;1026430;28;20046;-73
2023/04/25 01:28:34;;;;;;;32.25;5.60;;;;;;;;;;1026622;28;20061;-73
2023/04/25 01:29:05;;;;;;;7.60;3.05;;;;;;;;;;1026345;28;20105;-73
2023/04/25 01:29:35;;;;;;;6.53;3.47;;;;;;;;;;1025082;28;20084;-73
2023/04/25 01:30:06;;;;;;;6.28;4.15;;;;;;;;;;1020872;28;20098;-73
2023/04/25 01:30:37;;;;;;;2.22;1.70;;;;;;;;;;1022463;28;20400;-73
2023/04/25 01:31:07;;;;;;;2.72;1.73;;;;;;;;;;1021730;28;20156;-73
2023/04/25 01:31:38;;;;;;;8.98;3.05;;;;;;;;;;1019226;29;20118;-73
2023/04/25 01:32:09;;;;;;;3.90;1.95;;;;;;;;;;1022815;29;20107;-73
2023/04/25 01:32:40;;;;;;;6.80;3.53;;;;;;;;;;1022684;29;20031;-73
2023/04/25 01:33:11;;;;;;;3.42;2.22;;;;;;;;;;1021856;28;20387;-73
2023/04/25 01:33:41;;;;;;;3.38;2.28;;;;;;;;;;1022292;28;20526;-73
2023/04/25 01:34:12;;;;;;;2.83;2.25;;;;;;;;;;1019625;29;20028;-73
2023/04/25 01:34:43;;;;;;;2.28;1.83;;;;;;;;;;1019124;29;20031;-73
2023/04/25 01:35:13;;;;;;;10.15;2.15;;;;;;;;;;1018924;29;20031;-73
2023/04/25 01:35:44;;;;;;;12.68;2.20;;;;;;;;;;1023479;28;20050;-73
2023/04/25 01:36:15;;;;;;;5.00;2.30;;;;;;;;;;1026432;28;20026;-73
2023/04/25 01:36:47;;;;;;;5.43;3.17;;;;;;;;;;1026594;28;20027;-73
2023/04/25 01:37:18;;;;;;;1.90;1.58;;;;;;;;;;1027360;28;20089;-73
2023/04/25 01:37:50;;;;;;;5.13;2.58;;;;;;;;;;1027662;28;20125;-73
2023/04/25 01:38:20;;;;;;;4.00;2.03;;;;;;;;;;1022216;28;20058;-73
2023/04/25 01:38:51;;;;;;;1.85;1.67;;;;;;;;;;1022155;28;20695;-73
2023/04/25 01:39:21;;;;;;;19.50;2.85;;;;;;;;;;1022150;29;20032;-73
2023/04/25 01:39:52;;;;;;;6.00;1.90;;;;;;;;;;1023046;28;20476;-73
2023/04/25 01:40:23;;;;;;;4.95;2.75;;;;;;;;;;1026446;28;20272;-73
2023/04/25 01:40:54;;;;;;;8.65;3.50;;;;;;;;;;1026149;28;20023;-74
2023/04/25 01:41:25;;;;;;;7.68;4.50;;;;;;;;;;1026822;28;20030;-74
2023/04/25 01:41:56;;;;;;;5.55;2.85;;;;;;;;;;1022557;29;20019;-74
2023/04/25 01:42:27;;;;;;;6.95;4.22;;;;;;;;;;1023649;28;20035;-73
2023/04/25 01:42:57;;;;;;;5.25;2.30;;;;;;;;;;1022797;28;20490;-73
2023/04/25 01:43:28;;;;;;;8.77;4.15;;;;;;;;;;1023664;28;20035;-73
2023/04/25 01:43:58;;;;;;;3.72;1.88;;;;;;;;;;1023923;28;20047;-73
2023/04/25 01:44:29;;;;;;;2.63;1.98;;;;;;;;;;1022473;29;20083;-74
2023/04/25 01:44:59;;;;;;;5.88;3.22;;;;;;;;;;1021933;28;20025;-73
2023/04/25 01:45:30;;;;;;;7.85;3.42;;;;;;;;;;1022945;28;20023;-74
2023/04/25 01:46:00;;;;;;;12.00;4.70;;;;;;;;;;1025668;28;20019;-73
2023/04/25 01:46:33;;;;;;;8.15;1.92;;;;;;;;;;1027770;28;20145;-74
2023/04/25 01:47:03;;;;;;;4.20;1.95;;;;;;;;;;1027306;28;20023;-74
2023/04/25 01:47:37;;;;;;;2.88;2.28;;;;;;;;;;1028735;28;20636;-74
2023/04/25 01:48:11;;;;;;;5.82;2.30;;;;;;;;;;1028464;28;20049;-74
2023/04/25 01:48:42;;;;;;;1.20;1.08;;;;;;;;;;1025347;28;20467;-74
2023/04/25 01:49:12;;;;;;;2.92;1.48;;;;;;;;;;1027416;28;20026;-74
2023/04/25 01:49:43;;;;;;;2.35;1.42;;;;;;;;;;1026927;28;20033;-74
2023/04/25 01:50:13;;;;;;;4.90;1.27;;;;;;;;;;1021792;28;20027;-74
2023/04/25 01:50:45;;;;;;;11.32;5.97;;;;;;;;;;1021681;29;20090;-75
2023/04/25 01:51:15;;;;;;;9.02;5.75;;;;;;;;;;1020585;29;20054;-75
2023/04/25 01:51:46;;;;;;;3.45;2.65;;;;;;;;;;1019803;29;20486;-75
2023/04/25 01:52:16;;;;;;;11.02;5.47;;;;;;;;;;1023048;28;20114;-75
2023/04/25 01:52:47;;;;;;;13.30;4.15;;;;;;;;;;1020976;28;20027;-75
2023/04/25 01:53:17;;;;;;;6.38;3.15;;;;;;;;;;1026542;28;20022;-74
2023/04/25 01:53:48;;;;;;;8.43;2.80;;;;;;;;;;1027450;28;20066;-74
2023/04/25 01:54:19;;;;;;;7.28;3.58;;;;;;;;;;1027399;28;20026;-74
2023/04/25 01:54:50;;;;;;;6.82;4.50;;;;;;;;;;1026680;28;20027;-74
2023/04/25 01:55:21;;;;;;;5.85;1.88;;;;;;;;;;1019912;28;20023;-74
2023/04/25 01:55:51;;;;;;;4.05;3.40;;;;;;;;;;1022139;29;20031;-74
2023/04/25 01:56:22;;;;;;;5.05;3.50;;;;;;;;;;1020967;29;20547;-74
2023/04/25 01:56:52;;;;;;;6.10;3.92;;;;;;;;;;1017105;29;20223;-74
2023/04/25 01:57:23;;;;;;;14.77;5.57;;;;;;;;;;1022300;28;20173;-74
2023/04/25 01:57:53;;;;;;;6.65;2.67;;;;;;;;;;1024589;28;20058;-74
2023/04/25 01:58:24;;;;;;;7.03;2.90;;;;;;;;;;1025398;28;20076;-74
2023/04/25 01:58:54;;;;;;;2.85;1.55;;;;;;;;;;1027392;28;20010;-74
2023/04/25 01:59:25;;;;;;;3.60;1.83;;;;;;;;;;1027853;28;20081;-74
2023/04/25 02:00:00;;;;;;;4.07;1.67;;;;;;;;;;1026072;28;20428;-74
2023/04/25 02:00:30;;;;;;;2.40;1.67;;;;;;;;;;1026781;28;20113;-74
2023/04/25 02:01:01;;;;;;;2.25;1.85;;;;;;;;;;1021345;28;20027;-74
2023/04/25 02:01:32;;;;;;;2.35;1.33;;;;;;;;;;1021326;28;20117;-74
2023/04/25 02:02:05;;;;;;;0.68;0.68;;;;;;;;;;1018318;29;20020;-74
2023/04/25 02:02:36;;;;;;;4.20;1.48;;;;;;;;;;1018318;29;20049;-74
2023/04/25 02:03:07;;;;;;;4.80;1.38;;;;;;;;;;1020797;28;20502;-74
2023/04/25 02:03:37;;;;;;;4.30;1.20;;;;;;;;;;1025189;28;20093;-75
2023/04/25 02:04:08;;;;;;;2.15;1.67;;;;;;;;;;1028281;28;20035;-74
2023/04/25 02:04:38;;;;;;;1.73;1.17;;;;;;;;;;1027992;28;20101;-74
2023/04/25 02:05:09;;;;;;;2.72;1.42;;;;;;;;;;1026113;28;20041;-75
2023/04/25 02:05:40;;;;;;;0.93;0.73;;;;;;;;;;1028298;28;20099;-75
2023/04/25 02:06:10;;;;;;;1.80;1.20;;;;;;;;;;1024700;28;20129;-75
2023/04/25 02:06:41;;;;;;;2.83;2.28;;;;;;;;;;1025948;28;20031;-75
2023/04/25 02:07:11;;;;;;;2.45;1.00;;;;;;;;;;1027387;28;20407;-75
2023/04/25 02:07:42;;;;;;;2.25;1.40;;;;;;;;;;1026472;28;20364;-74
2023/04/25 02:08:12;;;;;;;1.85;1.65;;;;;;;;;;1026261;28;20022;-74
2023/04/25 02:08:42;;;;;;;0.55;0.45;;;;;;;;;;1026570;28;20027;-74
2023/04/25 02:09:13;;;;;;;4.00;1.80;;;;;;;;;;1025686;28;20157;-74
2023/04/25 02:09:43;;;;;;;0.88;0.82;;;;;;;;;;1026001;28;20015;-74
2023/04/25 02:10:14;;;;;;;2.35;2.15;;;;;;;;;;1026289;28;20030;-74
2023/04/25 02:10:45;;;;;;;2.53;1.90;;;;;;;;;;1025737;28;20019;-74
2023/04/25 02:11:15;;;;;;;1.77;1.65;;;;;;;;;;1027034;28;20023;-74
2023/04/25 02:11:46;;;;;;;1.80;1.13;;;;;;;;;;1023114;28;20033;-74
2023/04/25 02:12:16;;;;;;;2.45;2.25;;;;;;;;;;1023492;28;20588;-74
2023/04/25 02:12:47;;;;;;;1.80;0.90;;;;;;;;;;1024085;28;20043;-74
2023/04/25 02:13:17;;;;;;;2.70;1.67;;;;;;;;;;1019534;28;20023;-74
2023/04/25 02:13:48;;;;;;;1.88;1.13;;;;;;;;;;1021593;28;20042;-74
2023/04/25 02:14:18;;;;;;;1.60;0.82;;;;;;;;;;1022532;28;20423;-74
2023/04/25 02:14:49;;;;;;;2.97;1.10;;;;;;;;;;1022572;28;20023;-74
2023/04/25 02:15:19;;;;;;;0.55;0.55;;;;;;;;;;1021420;28;20114;-75
2023/04/25 02:15:50;;;;;;;0.30;0.30;;;;;;;;;;1017585;29;20059;-74
2023/04/25 02:16:20;;;;;;;2.05;1.17;;;;;;;;;;1017556;29;20067;-74
2023/04/25 02:16:51;;;;;;;0.32;0.32;;;;;;;;;;1016808;29;20106;-74
2023/04/25 02:17:21;;;;;;;3.17;1.75;;;;;;;;;;1021398;28;20023;-74
2023/04/25 02:17:55;;;;;;;1.02;0.80;;;;;;;;;;1025817;28;20034;-74
2023/04/25 02:18:26;;;;;;;1.23;1.13;;;;;;;;;;1024579;28;20065;-74
2023/04/25 02:18:56;;;;;;;2.20;1.08;;;;;;;;;;1026025;28;20030;-74
2023/04/25 02:19:27;;;;;;;5.47;1.52;;;;;;;;;;1021222;29;20024;-74
2023/04/25 02:19:57;;;;;;;0.40;0.40;;;;;;;;;;1019933;29;20134;-74
2023/04/25 02:20:28;;;;;;;3.03;1.67;;;;;;;;;;1017102;29;20024;-75
2023/04/25 02:21:01;;;;;;;1.63;1.00;;;;;;;;;;1019361;29;20035;-75
2023/04/25 02:21:32;;;;;;;1.55;0.90;;;;;;;;;;1020518;28;20032;-74
2023/04/25 02:22:02;;;;;;;1.23;0.68;;;;;;;;;;1022951;28;20038;-74
2023/04/25 02:22:33;;;;;;;8.80;1.25;;;;;;;;;;1027039;28;20057;-74
2023/04/25 02:23:04;;;;;;;0.80;0.70;;;;;;;;;;1024263;28;20776;-74
2023/04/25 02:23:35;;;;;;;1.33;1.20;;;;;;;;;;1024247;28;20030;-74
2023/04/25 02:24:05;;;;;;;3.80;1.40;;;;;;;;;;1025029;28;20150;-74
2023/04/25 02:24:36;;;;;;;7.30;1.23;;;;;;;;;;1025214;28;20092;-74
2023/04/25 02:25:07;;;;;;;0.35;0.35;;;;;;;;;;1025252;28;20451;-74
2023/04/25 02:25:37;;;;;;;2.00;1.27;;;;;;;;;;1025789;28;20036;-74
2023/04/25 02:26:08;;;;;;;0.70;0.70;;;;;;;;;;1026431;28;20462;-74
2023/04/25 02:26:38;;;;;;;1.35;0.88;;;;;;;;;;1023972;28;20042;-74
2023/04/25 02:27:09;;;;;;;1.33;1.23;;;;;;;;;;1019241;28;20035;-74
2023/04/25 02:27:40;;;;;;;1.73;0.82;;;;;;;;;;1020513;28;20118;-74
2023/04/25 02:28:10;;;;;;;0.50;0.50;;;;;;;;;;1020158;28;20039;-75
2023/04/25 02:28:41;;;;;;;6.30;0.82;;;;;;;;;;1022168;28;20035;-75
2023/04/25 02:29:11;;;;;;;1.20;1.10;;;;;;;;;;1021893;28;20027;-75
2023/04/25 02:29:42;;;;;;;4.28;1.65;;;;;;;;;;1021895;28;20082;-75
2023/04/25 02:30:12;;;;;;;1.95;0.30;;;;;;;;;;1021167;28;20035;-75
2023/04/25 02:30:43;;;;;;;0.73;0.73;;;;;;;;;;1022566;28;20031;-75
2023/04/25 02:31:13;;;;;;;2.22;1.65;;;;;;;;;;1024374;28;20034;-75
2023/04/25 02:31:44;;;;;;;4.93;1.00;;;;;;;;;;1027802;28;20035;-75
2023/04/25 02:32:14;;;;;;;3.90;1.95;;;;;;;;;;1022618;28;20022;-75
2023/04/25 02:32:45;;;;;;;6.40;2.72;;;;;;;;;;1022487;29;20042;-75
2023/04/25 02:33:16;;;;;;;5.45;2.65;;;;;;;;;;1021405;28;20109;-75
2023/04/25 02:33:47;;;;;;;8.35;2.10;;;;;;;;;;1021825;28;20035;-76
2023/04/25 02:34:17;;;;;;;6.78;3.00;;;;;;;;;;1026381;28;20382;-75
2023/04/25 02:34:48;;;;;;;16.75;1.73;;;;;;;;;;1021890;29;20031;-76
2023/04/25 02:35:19;;;;;;;4.20;3.22;;;;;;;;;;1021169;28;20027;-76
2023/04/25 02:35:50;;;;;;;3.03;1.65;;;;;;;;;;1022278;29;20035;-75
2023/04/25 02:36:20;;;;;;;4.20;1.65;;;;;;;;;;1023177;28;20558;-74
2023/04/25 02:36:50;;;;;;;6.65;2.92;;;;;;;;;;1027607;28;20033;-74
2023/04/25 02:37:21;;;;;;;32.20;3.17;;;;;;;;;;1025819;28;20031;-75
2023/04/25 02:37:52;;;;;;;17.98;3.40;;;;;;;;;;1024569;28;20031;-75
2023/04/25 02:38:22;;;;;;;8.65;1.95;;;;;;;;;;1025033;28;20117;-75
2023/04/25 02:38:52;;;;;;;4.60;2.92;;;;;;;;;;1023970;28;20138;-75
2023/04/25 02:39:24;;;;;;;3.95;2.97;;;;;;;;;;1023427;28;20578;-75
2023/04/25 02:39:55;;;;;;;3.10;2.70;;;;;;;;;;1025518;28;20030;-75
2023/04/25 02:40:25;;;;;;;9.20;3.28;;;;;;;;;;1024235;28;20573;-75
2023/04/25 02:40:56;;;;;;;3.65;2.42;;;;;;;;;;1025919;28;20037;-75
2023/04/25 02:41:26;;;;;;;1.50;1.40;;;;;;;;;;1025118;28;20030;-76
2023/04/25 02:41:57;;;;;;;1.88;1.70;;;;;;;;;;1025416;28;20031;-75
2023/04/25 02:42:27;;;;;;;5.35;2.22;;;;;;;;;;1025820;28;20054;-75
2023/04/25 02:42:58;;;;;;;5.57;2.90;;;;;;;;;;1022568;28;20082;-75
2023/04/25 02:43:28;;;;;;;6.45;2.35;;;;;;;;;;1020848;28;20023;-75
2023/04/25 02:43:59;;;;;;;2.97;1.67;;;;;;;;;;1022010;28;20037;-75
2023/04/25 02:44:30;;;;;;;8.70;3.63;;;;;;;;;;1020571;28;20023;-75
2023/04/25 02:45:01;;;;;;;3.00;1.45;;;;;;;;;;1026463;28;20031;-75
2023/04/25 02:45:31;;;;;;;3.28;1.70;;;;;;;;;;1026432;28;20062;-75
2023/04/25 02:46:02;;;;;;;1.30;1.20;;;;;;;;;;1026358;28;20469;-75
2023/04/25 02:46:32;;;;;;;2.28;1.20;;;;;;;;;;1025445;28;20029;-75
2023/04/25 02:47:03;;;;;;;4.25;2.22;;;;;;;;;;1024721;28;20376;-75
2023/04/25 02:47:33;;;;;;;2.17;1.75;;;;;;;;;;1024916;28;20035;-75
2023/04/25 02:48:04;;;;;;;16.42;1.40;;;;;;;;;;1023178;28;20464;-75
2023/04/25 02:48:35;;;;;;;7.40;2.22;;;;;;;;;;1022561;29;20054;-75
2023/04/25 02:49:06;;;;;;;3.22;2.05;;;;;;;;;;1020683;28;20374;-75
2023/04/25 02:49:36;;;;;;;2.67;1.50;;;;;;;;;;1021077;29;20033;-76
2023/04/25 02:50:07;;;;;;;13.10;2.70;;;;;;;;;;1021338;28;20038;-76
2023/04/25 02:50:37;;;;;;;6.88;2.70;;;;;;;;;;1022958;28;20391;-76
2023/04/25 02:51:08;;;;;;;3.33;2.83;;;;;;;;;;1021918;28;20019;-75
2023/04/25 02:51:38;;;;;;;7.28;2.83;;;;;;;;;;1023197;28;20363;-75
2023/04/25 02:52:09;;;;;;;3.78;1.23;;;;;;;;;;1026059;28;20027;-75
2023/04/25 02:52:39;;;;;;;6.03;2.42;;;;;;;;;;1027078;28;20685;-75
2023/04/25 02:53:10;;;;;;;4.32;2.65;;;;;;;;;;1024568;28;20169;-75
2023/04/25 02:53:40;;;;;;;5.22;2.42;;;;;;;;;;1028169;28;20200;-75
2023/04/25 02:54:11;;;;;;;4.63;2.33;;;;;;;;;;1024893;28;20498;-75
2023/04/25 02:54:41;;;;;;;1.90;1.13;;;;;;;;;;1021290;28;21219;-75
2023/04/25 02:55:12;;;;;;;11.88;2.67;;;;;;;;;;1020111;28;20513;-75
2023/04/25 02:55:43;;;;;;;16.45;2.53;;;;;;;;;;1022789;28;20027;-75
2023/04/25 02:56:13;;;;;;;2.80;2.00;;;;;;;;;;1020457;28;20066;-75
2023/04/25 02:56:44;;;;;;;3.35;2.15;;;;;;;;;;1023890;28;20026;-74
2023/04/25 02:57:14;;;;;;;10.45;2.58;;;;;;;;;;1024331;28;20042;-75
2023/04/25 02:57:45;;;;;;;3.33;1.70;;;;;;;;;;1025283;28;20065;-76
2023/04/25 02:58:15;;;;;;;5.55;2.90;;;;;;;;;;1023750;28;20031;-74
2023/04/25 02:58:46;;;;;;;2.45;1.70;;;;;;;;;;1025995;28;20510;-74
2023/04/25 02:59:16;;;;;;;1.85;1.67;;;;;;;;;;1025752;28;20038;-74
2023/04/25 02:59:47;;;;;;;5.95;2.45;;;;;;;;;;1021174;28;20027;-75
2023/04/25 03:00:19;;;;;;;3.15;2.42;;;;;;;;;;1020807;28;20495;-75
2023/04/25 03:00:50;;;;;;;4.28;2.05;;;;;;;;;;1022237;28;20042;-76
2023/04/25 03:01:20;;;;;;;19.50;3.78;;;;;;;;;;1020573;28;20491;-75
2023/04/25 03:01:51;;;;;;;6.30;2.72;;;;;;;;;;1020702;28;20139;-74
2023/04/25 03:02:21;;;;;;;7.25;3.92;;;;;;;;;;1021319;28;20527;-74
2023/04/25 03:02:52;;;;;;;4.07;2.22;;;;;;;;;;1019414;28;20527;-74
2023/04/25 03:03:22;;;;;;;3.70;1.63;;;;;;;;;;1025332;28;20035;-74
2023/04/25 03:03:53;;;;;;;1.85;1.30;;;;;;;;;;1024337;28;20034;-74